createdAt,value
2018-06-04T00:01:08.607Z,97395.19
2018-06-04T00:03:37.060Z,97402.28
2018-06-04T00:06:05.554Z,97399.98
2018-06-04T00:08:34.006Z,97399.91
2018-06-04T00:11:02.462Z,97403.83
2018-06-04T00:13:30.882Z,97398.08
2018-06-04T00:15:59.911Z,97397.17
2018-06-04T00:18:28.975Z,97395.23
2018-06-04T00:20:57.457Z,97394.01
2018-06-04T00:23:25.910Z,97392.78
2018-06-04T00:25:54.747Z,97389.38
2018-06-04T00:28:23.220Z,97394.19
2018-06-04T00:30:51.718Z,97386.86
2018-06-04T00:33:20.200Z,97384.27
2018-06-04T00:35:49.185Z,97381.00
2018-06-04T00:38:17.593Z,97379.27
2018-06-04T00:40:46.383Z,97377.00
2018-06-04T00:43:14.844Z,97380.30
2018-06-04T00:45:43.273Z,97374.13
2018-06-04T00:48:11.667Z,97375.31
2018-06-04T00:50:40.122Z,97375.48
2018-06-04T00:53:08.572Z,97369.86
2018-06-04T00:55:48.262Z,97368.02
2018-06-04T00:58:16.752Z,97365.04
2018-06-04T01:00:45.257Z,97360.24
2018-06-04T01:03:13.671Z,97363.41
2018-06-04T01:05:42.080Z,97359.57
2018-06-04T01:08:10.505Z,97352.61
2018-06-04T01:10:38.999Z,97351.92
2018-06-04T01:13:07.459Z,97356.30
2018-06-04T01:15:35.883Z,97349.48
2018-06-04T01:18:04.427Z,97351.63
2018-06-04T01:20:32.996Z,97344.80
2018-06-04T01:23:01.422Z,97347.47
2018-06-04T01:25:30.190Z,97345.17
2018-06-04T01:27:58.676Z,97343.02
2018-06-04T01:30:27.160Z,97346.02
2018-06-04T01:32:55.700Z,97343.95
2018-06-04T01:35:24.240Z,97343.87
2018-06-04T01:37:52.817Z,97339.28
2018-06-04T01:40:21.371Z,97339.72
2018-06-04T01:42:49.914Z,97343.45
2018-06-04T01:45:18.401Z,97335.17
2018-06-04T01:47:46.901Z,97339.56
2018-06-04T01:50:15.403Z,97335.89
2018-06-04T01:52:43.916Z,97334.73
2018-06-04T01:55:12.951Z,97335.74
2018-06-04T01:57:41.440Z,97331.79
2018-06-04T02:00:10.327Z,97333.59
2018-06-04T02:02:38.833Z,97342.92
2018-06-04T02:05:07.643Z,97334.81
2018-06-04T02:07:36.121Z,97326.80
2018-06-04T02:10:04.818Z,97321.83
2018-06-04T02:12:33.263Z,97325.63
2018-06-04T02:15:01.713Z,97328.42
2018-06-04T02:17:30.213Z,97330.49
2018-06-04T02:19:58.715Z,97327.91
2018-06-04T02:22:27.188Z,97334.23
2018-06-04T02:24:55.757Z,97328.07
2018-06-04T02:27:24.195Z,97326.14
2018-06-04T02:29:52.745Z,97325.61
2018-06-04T02:32:21.206Z,97320.08
2018-06-04T02:34:49.653Z,97323.84
2018-06-04T02:37:18.080Z,97318.64
2018-06-04T02:39:46.778Z,97324.09
2018-06-04T02:42:15.254Z,97321.16
2018-06-04T02:44:43.813Z,97320.59
2018-06-04T02:47:12.261Z,97316.45
2018-06-04T02:49:41.386Z,97320.75
2018-06-04T02:52:09.998Z,97311.23
2018-06-04T02:54:38.493Z,97310.11
2018-06-04T02:57:07.057Z,97320.27
2018-06-04T02:59:35.608Z,97324.44
2018-06-04T03:02:04.274Z,97319.74
2018-06-04T03:04:32.796Z,97317.15
2018-06-04T03:07:01.235Z,97319.17
2018-06-04T03:09:30.034Z,97324.44
2018-06-04T03:11:58.503Z,97314.00
2018-06-04T03:14:27.216Z,97319.84
2018-06-04T03:16:55.609Z,97320.72
2018-06-04T03:19:24.138Z,97319.84
2018-06-04T03:21:52.608Z,97322.56
2018-06-04T03:24:21.041Z,97317.20
2018-06-04T03:26:49.554Z,97317.52
2018-06-04T03:29:18.279Z,97317.95
2018-06-04T03:31:46.737Z,97320.02
2018-06-04T03:34:15.610Z,97319.67
2018-06-04T03:36:44.309Z,97322.21
2018-06-04T03:39:12.760Z,97317.30
2018-06-04T03:41:41.246Z,97318.00
2018-06-04T03:44:09.786Z,97315.44
2018-06-04T03:46:38.445Z,97317.97
2018-06-04T03:49:06.906Z,97321.13
2018-06-04T03:51:35.507Z,97327.84
2018-06-04T03:54:04.188Z,97333.92
2018-06-04T03:56:33.257Z,97329.52
2018-06-04T03:59:02.295Z,97331.90
2018-06-04T04:01:30.820Z,97332.53
2018-06-04T04:04:02.776Z,97327.75
2018-06-04T04:06:31.402Z,97340.58
2018-06-04T04:08:59.855Z,97337.25
2018-06-04T04:11:28.359Z,97332.88
2018-06-04T04:13:56.839Z,97338.11
2018-06-04T04:16:25.315Z,97334.91
2018-06-04T04:18:54.380Z,97334.12
2018-06-04T04:21:23.694Z,97336.23
2018-06-04T04:23:52.251Z,97336.74
2018-06-04T04:26:21.136Z,97337.62
2018-06-04T04:28:50.594Z,97337.84
2018-06-04T04:31:19.796Z,97342.25
2018-06-04T04:33:48.519Z,97343.26
2018-06-04T04:36:16.962Z,97338.88
2018-06-04T04:38:45.399Z,97338.58
2018-06-04T04:41:13.864Z,97337.47
2018-06-04T04:43:42.340Z,97341.61
2018-06-04T04:46:11.190Z,97337.89
2018-06-04T04:48:39.580Z,97338.25
2018-06-04T04:51:08.078Z,97332.24
2018-06-04T04:53:36.954Z,97332.28
2018-06-04T04:56:06.459Z,97335.23
2018-06-04T04:58:34.891Z,97339.76
2018-06-04T05:01:03.506Z,97339.51
2018-06-04T05:03:32.106Z,97339.95
2018-06-04T05:06:00.549Z,97353.68
2018-06-04T05:08:28.980Z,97347.80
2018-06-04T05:10:57.444Z,97343.89
2018-06-04T05:13:26.008Z,97337.93
2018-06-04T05:15:54.469Z,97342.89
2018-06-04T05:18:23.446Z,97347.19
2018-06-04T05:20:52.367Z,97344.02
2018-06-04T05:23:20.777Z,97339.29
2018-06-04T05:25:49.213Z,97337.31
2018-06-04T05:28:17.740Z,97336.88
2018-06-04T05:30:46.214Z,97335.68
2018-06-04T05:33:14.586Z,97331.14
2018-06-04T05:35:43.004Z,97331.00
2018-06-04T05:38:11.457Z,97334.66
2018-06-04T05:40:39.940Z,97327.62
2018-06-04T05:43:09.461Z,97330.12
2018-06-04T05:45:37.888Z,97329.28
2018-06-04T05:48:06.391Z,97335.11
2018-06-04T05:50:34.833Z,97330.08
2018-06-04T05:53:03.240Z,97329.20
2018-06-04T05:55:31.672Z,97321.75
2018-06-04T05:58:00.120Z,97278.75
2018-06-04T06:00:28.477Z,97319.16
2018-06-04T06:02:57.581Z,97311.42
2018-06-04T06:05:26.042Z,97312.33
2018-06-04T06:07:54.459Z,97310.16
2018-06-04T06:10:23.584Z,97316.91
2018-06-04T06:12:52.059Z,97309.80
2018-06-04T06:15:20.492Z,97309.27
2018-06-04T06:17:49.550Z,97309.77
2018-06-04T06:20:17.982Z,97309.27
2018-06-04T06:22:46.425Z,97305.98
2018-06-04T06:25:14.861Z,97301.96
2018-06-04T06:27:43.307Z,97295.70
2018-06-04T06:30:11.824Z,97299.30
2018-06-04T06:32:40.239Z,97295.55
2018-06-04T06:35:08.903Z,97294.41
2018-06-04T06:37:37.324Z,97292.73
2018-06-04T06:40:06.217Z,97294.11
2018-06-04T06:42:34.695Z,97292.38
2018-06-04T06:45:03.221Z,97290.58
2018-06-04T06:47:31.645Z,97281.67
2018-06-04T06:50:00.061Z,97286.47
2018-06-04T06:52:28.500Z,97286.23
2018-06-04T06:54:56.945Z,97281.84
2018-06-04T06:57:26.087Z,97285.42
2018-06-04T06:59:54.486Z,97275.98
2018-06-04T07:02:22.925Z,97282.61
2018-06-04T07:04:51.339Z,97280.16
2018-06-04T07:07:19.804Z,97278.02
2018-06-04T07:09:48.194Z,97272.86
2018-06-04T07:12:16.631Z,97269.03
2018-06-04T07:14:45.103Z,97274.92
2018-06-04T07:17:13.548Z,97277.75
2018-06-04T07:19:41.954Z,97280.72
2018-06-04T07:22:10.413Z,97281.44
2018-06-04T07:24:38.836Z,97277.24
2018-06-04T07:27:07.291Z,97269.23
2018-06-04T07:29:35.678Z,97278.68
2018-06-04T07:32:04.178Z,97277.30
2018-06-04T07:34:32.598Z,97277.47
2018-06-04T07:37:01.036Z,97272.95
2018-06-04T07:39:29.440Z,97267.40
2018-06-04T07:41:57.966Z,97272.88
2018-06-04T07:44:26.423Z,97265.38
2018-06-04T07:46:54.790Z,97266.11
2018-06-04T07:49:23.585Z,97266.58
2018-06-04T07:51:52.095Z,97271.98
2018-06-04T07:54:20.675Z,97266.56
2018-06-04T07:56:49.877Z,97256.02
2018-06-04T07:59:18.415Z,97268.57
2018-06-04T08:01:47.043Z,97255.48
2018-06-04T08:04:15.473Z,97258.33
2018-06-04T08:06:43.896Z,97250.30
2018-06-04T08:09:12.372Z,97253.51
2018-06-04T08:11:40.862Z,97253.97
2018-06-04T08:14:09.521Z,97246.97
2018-06-04T08:16:37.956Z,97249.55
2018-06-04T08:19:06.329Z,97253.11
2018-06-04T08:21:37.644Z,97252.36
2018-06-04T08:24:06.378Z,97247.45
2018-06-04T08:26:34.905Z,97246.27
2018-06-04T08:29:03.294Z,97246.88
2018-06-04T08:31:32.075Z,97249.45
2018-06-04T08:34:00.484Z,97240.99
2018-06-04T08:36:28.927Z,97245.55
2018-06-04T08:38:57.436Z,97243.94
2018-06-04T08:41:25.855Z,97243.17
2018-06-04T08:43:54.394Z,97242.56
2018-06-04T08:46:22.797Z,97243.15
2018-06-04T08:48:51.229Z,97241.15
2018-06-04T08:51:19.614Z,97240.52
2018-06-04T08:53:48.059Z,97239.93
2018-06-04T08:56:16.660Z,97232.65
2018-06-04T08:58:45.016Z,97235.80
2018-06-04T09:01:13.455Z,97239.72
2018-06-04T09:03:42.549Z,97238.12
2018-06-04T09:06:11.001Z,97233.34
2018-06-04T09:08:39.418Z,97235.30
2018-06-04T09:11:07.879Z,97235.30
2018-06-04T09:13:36.317Z,97234.83
2018-06-04T09:16:04.722Z,97229.84
2018-06-04T09:18:33.397Z,97228.25
2018-06-04T09:21:01.809Z,97231.13
2018-06-04T09:23:30.277Z,97231.87
2018-06-04T09:25:58.992Z,97230.61
2018-06-04T09:28:27.449Z,97231.03
2018-06-04T09:30:55.981Z,97225.14
2018-06-04T09:33:24.460Z,97223.88
2018-06-04T09:35:53.013Z,97223.75
2018-06-04T09:38:21.509Z,97215.78
2018-06-04T09:40:49.960Z,97211.95
2018-06-04T09:43:18.552Z,97211.83
2018-06-04T09:45:47.015Z,97209.84
2018-06-04T09:48:15.422Z,97208.78
2018-06-04T09:50:44.729Z,97207.56
2018-06-04T09:53:13.207Z,97204.47
2018-06-04T09:55:41.663Z,97203.22
2018-06-04T09:58:10.464Z,97200.45
2018-06-04T10:00:39.276Z,97203.70
2018-06-04T10:03:07.715Z,97187.52
2018-06-04T10:05:36.231Z,97192.21
2018-06-04T10:08:04.711Z,97188.30
2018-06-04T10:10:33.160Z,97185.58
2018-06-04T10:13:01.592Z,97183.19
2018-06-04T10:15:30.154Z,97181.84
2018-06-04T10:17:58.635Z,97181.06
2018-06-04T10:20:27.473Z,97182.17
2018-06-04T10:22:56.189Z,97181.43
2018-06-04T10:25:24.603Z,97179.77
2018-06-04T10:27:53.035Z,97172.86
2018-06-04T10:30:22.213Z,97173.36
2018-06-04T10:32:51.294Z,97169.03
2018-06-04T10:35:20.011Z,97162.27
2018-06-04T10:37:49.182Z,97166.41
2018-06-04T10:40:17.754Z,97172.77
2018-06-04T10:42:46.680Z,97171.75
2018-06-04T10:45:15.118Z,97165.20
2018-06-04T10:47:43.565Z,97162.86
2018-06-04T10:50:12.170Z,97163.19
2018-06-04T10:52:40.625Z,97167.61
2018-06-04T10:55:09.094Z,97169.09
2018-06-04T10:57:37.573Z,97167.56
2018-06-04T11:00:06.095Z,97165.44
2018-06-04T11:02:34.517Z,97160.80
2018-06-04T11:05:02.986Z,97166.41
2018-06-04T11:07:31.462Z,97158.86
2018-06-04T11:09:59.969Z,97157.84
2018-06-04T11:12:28.702Z,97156.64
2018-06-04T11:14:57.184Z,97148.59
2018-06-04T11:17:25.610Z,97147.05
2018-06-04T11:19:54.135Z,97145.61
2018-06-04T11:22:22.601Z,97145.92
2018-06-04T11:24:51.073Z,97148.48
2018-06-04T11:27:19.696Z,97148.61
2018-06-04T11:29:48.172Z,97148.13
2018-06-04T11:32:16.635Z,97139.07
2018-06-04T11:34:45.159Z,97131.88
2018-06-04T11:37:13.622Z,97125.34
2018-06-04T11:39:42.082Z,97137.59
2018-06-04T11:42:10.724Z,97127.96
2018-06-04T11:44:39.154Z,97134.16
2018-06-04T11:47:08.229Z,97130.34
2018-06-04T11:49:36.659Z,97131.43
2018-06-04T11:52:05.107Z,97134.59
2018-06-04T11:54:33.607Z,97128.03
2018-06-04T11:57:02.191Z,97119.78
2018-06-04T11:59:30.648Z,97118.95
2018-06-04T12:01:59.604Z,97110.30
2018-06-04T12:04:28.222Z,97119.09
2018-06-04T12:06:56.668Z,97115.39
2018-06-04T12:09:25.142Z,97113.05
2018-06-04T12:11:53.627Z,97105.22
2018-06-04T12:14:22.069Z,97104.30
2018-06-04T12:16:50.577Z,97095.79
2018-06-04T12:19:19.011Z,97097.27
2018-06-04T12:21:47.447Z,97095.04
2018-06-04T12:24:16.000Z,97094.23
2018-06-04T12:26:44.477Z,97088.26
2018-06-04T12:29:12.890Z,97090.50
2018-06-04T12:31:41.286Z,97087.52
2018-06-04T12:34:09.689Z,97085.98
2018-06-04T12:36:38.132Z,97080.48
2018-06-04T12:39:08.952Z,97082.04
2018-06-04T12:41:37.418Z,97076.83
2018-06-04T12:44:05.854Z,97072.56
2018-06-04T12:46:34.634Z,97065.94
2018-06-04T12:49:03.076Z,97058.59
2018-06-04T12:51:33.288Z,97052.48
2018-06-04T12:54:01.772Z,97049.47
2018-06-04T12:56:30.251Z,97045.59
2018-06-04T12:58:58.711Z,97050.69
2018-06-04T13:01:27.194Z,97043.76
2018-06-04T13:03:55.676Z,97036.70
2018-06-04T13:06:24.102Z,97037.81
2018-06-04T13:08:52.562Z,97038.31
2018-06-04T13:11:20.985Z,97034.03
2018-06-04T13:13:49.536Z,97031.62
2018-06-04T13:16:18.029Z,97025.11
2018-06-04T13:18:46.496Z,97023.16
2018-06-04T13:21:15.092Z,97024.53
2018-06-04T13:23:43.500Z,97024.69
2018-06-04T13:26:11.924Z,97021.83
2018-06-04T13:28:40.418Z,97015.02
2018-06-04T13:31:08.822Z,97010.02
2018-06-04T13:33:37.352Z,97012.03
2018-06-04T13:36:05.922Z,97013.29
2018-06-04T13:38:34.319Z,97007.69
2018-06-04T13:41:02.789Z,97005.42
2018-06-04T13:43:31.214Z,96999.38
2018-06-04T13:45:59.667Z,96999.33
2018-06-04T13:48:28.075Z,96998.28
2018-06-04T13:50:56.562Z,96987.27
2018-06-04T13:53:25.018Z,96975.83
2018-06-04T13:55:53.511Z,96972.63
2018-06-04T13:58:21.979Z,96975.53
2018-06-04T14:00:51.087Z,96968.14
2018-06-04T14:03:19.543Z,96964.66
2018-06-04T14:05:47.977Z,96971.86
2018-06-04T14:08:16.637Z,96968.70
2018-06-04T14:10:45.097Z,96968.27
2018-06-04T14:13:13.549Z,96964.81
2018-06-04T14:15:42.854Z,96967.67
2018-06-04T14:18:11.343Z,96958.67
2018-06-04T14:20:40.944Z,96964.19
2018-06-04T14:23:09.424Z,96957.94
2018-06-04T14:25:37.850Z,96948.92
2018-06-04T14:28:06.302Z,96948.50
2018-06-04T14:30:34.829Z,96935.92
2018-06-04T14:33:03.279Z,96874.29
2018-06-04T14:35:31.765Z,96935.13
2018-06-04T14:38:00.216Z,96928.61
2018-06-04T14:40:28.734Z,96925.33
2018-06-04T14:42:57.260Z,96922.12
2018-06-04T14:45:25.721Z,96921.80
2018-06-04T14:47:54.183Z,96915.81
2018-06-04T14:50:22.749Z,96918.58
2018-06-04T14:52:51.289Z,96918.85
2018-06-04T14:55:19.842Z,96913.16
2018-06-04T14:57:48.503Z,96910.38
2018-06-04T15:00:16.959Z,96909.72
2018-06-04T15:02:45.432Z,96908.52
2018-06-04T15:05:13.969Z,96904.66
2018-06-04T15:07:42.424Z,96903.29
2018-06-04T15:10:10.885Z,96900.41
2018-06-04T15:12:39.330Z,96896.58
2018-06-04T15:15:07.987Z,96897.46
2018-06-04T15:17:36.447Z,96900.90
2018-06-04T15:20:05.143Z,96901.77
2018-06-04T15:22:33.575Z,96902.29
2018-06-04T15:25:02.470Z,96910.75
2018-06-04T15:27:36.251Z,96906.69
2018-06-04T15:30:06.444Z,96906.51
2018-06-04T15:32:38.550Z,96908.39
2018-06-04T15:35:07.575Z,96904.62
2018-06-04T15:37:38.922Z,96911.52
2018-06-04T15:40:07.445Z,96907.06
2018-06-04T15:42:36.955Z,96906.30
2018-06-04T15:45:06.612Z,96905.45
2018-06-04T15:47:36.521Z,96906.55
2018-06-04T15:50:05.591Z,96901.78
2018-06-04T15:52:34.953Z,96773.02
2018-06-04T15:55:03.829Z,96899.11
2018-06-04T15:57:33.696Z,96897.02
2018-06-04T16:00:05.096Z,96890.23
2018-06-04T16:02:34.306Z,96895.05
2018-06-04T16:05:04.007Z,96892.32
2018-06-04T16:07:50.102Z,96772.17
2018-06-04T16:10:23.847Z,96890.94
2018-06-04T16:12:52.435Z,96899.16
2018-06-04T16:15:34.572Z,96890.94
2018-06-04T16:21:46.047Z,96886.84
2018-06-04T16:24:14.688Z,96882.84
2018-06-04T16:26:46.137Z,96789.82
2018-06-04T16:29:17.461Z,96898.37
2018-06-04T16:31:48.388Z,96897.72
2018-06-04T16:34:17.035Z,96897.72
2018-06-04T16:36:45.641Z,96901.49
2018-06-04T16:39:14.493Z,96904.28
2018-06-04T16:41:42.988Z,96897.20
2018-06-04T16:44:11.525Z,96900.66
2018-06-04T16:46:46.365Z,96900.09
2018-06-04T16:49:15.813Z,96898.94
2018-06-04T16:51:45.201Z,96897.31
2018-06-04T16:54:17.833Z,96897.34
2018-06-04T16:56:47.297Z,96899.22
2018-06-04T16:59:16.219Z,96895.81
2018-06-04T17:01:44.616Z,96905.16
2018-06-04T17:04:13.653Z,96908.11
2018-06-04T17:09:40.906Z,96907.48
2018-06-04T17:12:10.029Z,96901.71
2018-06-04T17:14:38.801Z,96903.41
2018-06-04T17:17:08.818Z,96900.94
2018-06-04T17:19:40.535Z,96905.07
2018-06-04T17:22:16.835Z,96898.34
2018-06-04T17:24:47.789Z,96900.70
2018-06-04T17:27:18.655Z,96903.39
2018-06-04T17:29:51.025Z,96902.31
2018-06-04T17:32:24.214Z,96895.53
2018-06-04T17:34:53.685Z,96901.63
2018-06-04T17:37:22.269Z,96897.23
2018-06-04T17:39:50.685Z,96902.62
2018-06-04T17:42:22.912Z,96890.36
2018-06-04T17:44:53.098Z,96890.48
2018-06-04T17:47:27.666Z,96897.88
2018-06-04T17:49:56.158Z,96894.03
2018-06-04T17:52:25.173Z,96892.59
2018-06-04T17:54:53.692Z,96888.27
2018-06-04T17:57:22.196Z,96887.59
2018-06-04T17:59:50.634Z,96885.13
2018-06-04T18:02:19.424Z,96883.27
2018-06-04T18:04:47.983Z,96888.66
2018-06-04T18:07:16.634Z,96881.09
2018-06-04T18:09:46.051Z,96886.63
2018-06-04T18:12:15.544Z,96890.23
2018-06-04T18:14:45.172Z,96886.83
2018-06-04T18:17:13.741Z,96894.77
2018-06-04T18:19:42.513Z,96894.97
2018-06-04T18:22:12.374Z,96897.50
2018-06-04T18:24:47.759Z,96903.44
2018-06-04T18:27:19.267Z,96902.03
2018-06-04T18:29:48.198Z,96903.89
2018-06-04T18:32:17.282Z,96905.25
2018-06-04T18:34:48.012Z,96911.55
2018-06-04T18:37:16.946Z,96916.42
2018-06-04T18:39:46.135Z,96918.95
2018-06-04T18:42:15.233Z,96917.02
2018-06-04T18:44:44.243Z,96916.23
2018-06-04T18:47:14.356Z,96922.52
2018-06-04T18:49:43.730Z,96927.35
2018-06-04T18:52:14.469Z,96930.79
2018-06-04T18:54:43.775Z,96940.40
2018-06-04T18:57:13.936Z,96942.93
2018-06-04T18:59:43.571Z,96950.20
2018-06-04T19:02:16.524Z,96960.32
2018-06-04T19:04:57.243Z,96848.72
2018-06-04T19:07:25.818Z,96964.05
2018-06-04T19:09:54.318Z,96968.87
2018-06-04T19:12:23.280Z,96967.17
2018-06-04T19:14:51.886Z,96971.91
2018-06-04T19:17:20.368Z,96979.08
2018-06-04T19:19:48.926Z,96979.96
2018-06-04T19:22:17.573Z,96978.95
2018-06-04T19:24:47.063Z,96985.20
2018-06-04T19:27:15.729Z,96986.92
2018-06-04T19:29:44.503Z,96993.31
2018-06-04T19:32:13.066Z,97002.47
2018-06-04T19:34:41.659Z,97004.14
2018-06-04T19:37:10.573Z,97007.23
2018-06-04T19:39:40.006Z,97011.22
2018-06-04T19:42:08.556Z,97007.39
2018-06-04T19:44:37.208Z,97018.35
2018-06-04T19:47:10.032Z,97017.75
2018-06-04T19:49:42.561Z,97029.20
2018-06-04T19:52:14.949Z,97024.43
2018-06-04T19:54:43.683Z,97025.14
2018-06-04T19:57:12.194Z,97033.72
2018-06-04T19:59:40.749Z,97036.10
2018-06-04T20:02:09.256Z,97044.60
2018-06-04T20:04:37.758Z,97044.64
2018-06-04T20:07:12.973Z,97041.16
2018-06-04T20:09:41.514Z,97042.98
2018-06-04T20:12:10.042Z,97044.78
2018-06-04T20:14:38.534Z,97049.02
2018-06-04T20:17:07.148Z,97052.87
2018-06-04T20:19:36.228Z,97047.14
2018-06-04T20:22:04.870Z,97056.38
2018-06-04T20:24:33.357Z,97052.84
2018-06-04T20:27:01.868Z,97063.49
2018-06-04T20:29:30.340Z,97060.45
2018-06-04T20:31:58.961Z,97058.50
2018-06-04T20:34:28.339Z,97063.45
2018-06-04T20:36:56.879Z,97067.42
2018-06-04T20:39:25.399Z,97063.53
2018-06-04T20:41:54.270Z,97065.73
2018-06-04T20:44:23.595Z,97070.31
2018-06-04T20:46:52.187Z,97070.53
2018-06-04T20:49:20.736Z,97072.56
2018-06-04T20:51:49.300Z,97069.20
2018-06-04T20:54:18.609Z,97067.06
2018-06-04T20:56:47.242Z,97068.52
2018-06-04T20:59:16.217Z,97065.79
2018-06-04T21:01:45.052Z,97071.30
2018-06-04T21:04:13.590Z,97071.52
2018-06-04T21:06:42.150Z,97074.69
2018-06-04T21:09:11.243Z,97073.14
2018-06-04T21:11:39.885Z,97065.73
2018-06-04T21:14:08.416Z,97067.72
2018-06-04T21:16:37.021Z,97070.89
2018-06-04T21:19:05.936Z,97075.71
2018-06-04T21:21:34.531Z,97076.94
2018-06-04T21:24:03.658Z,97074.95
2018-06-04T21:26:33.250Z,97075.38
2018-06-04T21:29:01.856Z,97072.30
2018-06-04T21:31:30.648Z,97070.53
2018-06-04T21:33:59.688Z,97067.21
2018-06-04T21:36:29.442Z,97074.09
2018-06-04T21:38:57.973Z,97073.55
2018-06-04T21:41:28.289Z,97068.84
2018-06-04T21:43:57.656Z,97063.76
2018-06-04T21:46:27.024Z,97066.76
2018-06-04T21:48:55.977Z,97071.67
2018-06-04T21:51:25.037Z,97065.22
2018-06-04T21:53:54.229Z,97069.14
2018-06-04T21:56:23.593Z,97067.77
2018-06-04T21:58:52.526Z,97059.94
2018-06-04T22:01:21.067Z,97062.09
2018-06-04T22:03:50.342Z,97062.67
2018-06-04T22:06:18.957Z,97060.56
2018-06-04T22:08:47.441Z,97057.65
2018-06-04T22:11:16.072Z,97058.20
2018-06-04T22:13:44.554Z,97060.00
2018-06-04T22:16:13.087Z,97055.88
2018-06-04T22:18:41.590Z,97056.28
2018-06-04T22:21:10.090Z,97053.73
2018-06-04T22:23:38.961Z,97050.22
2018-06-04T22:26:07.483Z,97050.59
2018-06-04T22:28:36.516Z,97056.48
2018-06-04T22:31:06.574Z,97054.94
2018-06-04T22:33:35.252Z,97053.15
2018-06-04T22:36:03.878Z,97047.84
2018-06-04T22:38:36.466Z,97041.59
2018-06-04T22:41:05.697Z,97044.53
2018-06-04T22:43:34.346Z,97045.30
2018-06-04T22:46:03.195Z,97042.55
2018-06-04T22:48:32.044Z,97039.03
2018-06-04T22:51:00.910Z,97037.84
2018-06-04T22:53:29.425Z,97035.31
2018-06-04T22:55:57.865Z,97030.59
2018-06-04T22:58:26.315Z,97034.52
2018-06-04T23:00:54.797Z,97033.73
2018-06-04T23:03:24.000Z,97031.97
2018-06-04T23:05:52.541Z,97032.34
2018-06-04T23:08:21.120Z,97033.11
2018-06-04T23:10:49.601Z,97031.38
2018-06-04T23:13:18.130Z,97027.78
2018-06-04T23:15:46.619Z,97029.75
2018-06-04T23:18:15.244Z,97030.73
2018-06-04T23:20:43.742Z,97030.34
2018-06-04T23:23:13.477Z,97023.47
2018-06-04T23:25:41.976Z,97025.44
2018-06-04T23:28:10.432Z,97028.57
2018-06-04T23:30:38.867Z,97022.88
2018-06-04T23:33:07.387Z,97017.16
2018-06-04T23:35:35.999Z,97015.97
2018-06-04T23:38:04.765Z,97013.05
2018-06-04T23:40:33.572Z,97016.38
2018-06-04T23:43:02.274Z,97017.92
2018-06-04T23:45:30.902Z,97018.29
2018-06-04T23:48:00.152Z,97020.27
2018-06-04T23:50:28.630Z,97015.95
2018-06-04T23:52:57.998Z,97020.79
2018-06-04T23:55:26.451Z,97020.37
2018-06-04T23:57:54.937Z,97024.47
